FYWB

Walvis Bay Airport

Walvis Bay, Namibia
METAR FYWB 251900Z AUTO 25005KT //// // ////// 12/09 Q1018
Observed Flight Rules
Sep-25 @ 19:00 UTC (39 minutes ago)
Wind
250° at 5 knots
Temperatures Readings
Current 12°C / 54°F
Dewpoint 9°C / 48°F
Humidity 82%
Altimeter 30.06" Hg
Pressure 1018 hPa
Elevation 46
METAR FYWB 251900Z AUTO 25005KT //// // ////// 12/09 Q1018
Observed Flight Rules
Sep-25 @ 19:00 UTC
(39 minutes ago)
Wind
250° at 5 knots
Temperature Dewpoint
12°C / 54°F 9°C / 48°F
Humidity Altimeter Pressure
82% 30.06" Hg 1018 hPa